sensor_id;sensor_type;location;lat;lon;timestamp;pressure;altitude;pressure_sealevel;temperature;humidity
50682;BME280;36779;52.168;20.878;2022-11-03T00:01:55;101019.82;;;8.55;75.95
50682;BME280;36779;52.168;20.878;2022-11-03T00:04:25;101023.53;;;8.50;75.83
50682;BME280;36779;52.168;20.878;2022-11-03T00:06:54;101025.59;;;8.45;75.90
50682;BME280;36779;52.168;20.878;2022-11-03T00:09:23;101028.95;;;8.43;75.88
50682;BME280;36779;52.168;20.878;2022-11-03T00:11:56;101026.70;;;8.43;75.99
50682;BME280;36779;52.168;20.878;2022-11-03T00:14:25;101027.33;;;8.39;75.91
50682;BME280;36779;52.168;20.878;2022-11-03T00:16:54;101027.83;;;8.35;75.90
50682;BME280;36779;52.168;20.878;2022-11-03T00:19:22;101024.85;;;8.29;75.82
50682;BME280;36779;52.168;20.878;2022-11-03T00:21:51;101024.45;;;8.21;75.71
50682;BME280;36779;52.168;20.878;2022-11-03T00:24:19;101027.44;;;8.15;75.89
50682;BME280;36779;52.168;20.878;2022-11-03T00:26:48;101032.39;;;8.11;76.01
50682;BME280;36779;52.168;20.878;2022-11-03T00:29:17;101030.71;;;8.10;75.89
50682;BME280;36779;52.168;20.878;2022-11-03T00:31:45;101034.06;;;8.10;75.90
50682;BME280;36779;52.168;20.878;2022-11-03T00:34:16;101036.31;;;8.08;75.83
50682;BME280;36779;52.168;20.878;2022-11-03T00:36:45;101036.20;;;8.08;75.98
50682;BME280;36779;52.168;20.878;2022-11-03T00:39:21;101037.91;;;8.06;76.03
50682;BME280;36779;52.168;20.878;2022-11-03T00:41:50;101034.90;;;8.02;75.98
50682;BME280;36779;52.168;20.878;2022-11-03T00:44:18;101041.41;;;7.94;75.86
50682;BME280;36779;52.168;20.878;2022-11-03T00:46:48;101046.80;;;7.89;75.73
50682;BME280;36779;52.168;20.878;2022-11-03T00:49:16;101045.83;;;7.88;75.85
50682;BME280;36779;52.168;20.878;2022-11-03T00:51:44;101044.98;;;7.85;75.72
50682;BME280;36779;52.168;20.878;2022-11-03T00:54:14;101047.52;;;7.81;75.77
50682;BME280;36779;52.168;20.878;2022-11-03T00:56:49;101049.94;;;7.77;75.64
50682;BME280;36779;52.168;20.878;2022-11-03T00:59:19;101048.45;;;7.76;75.88
50682;BME280;36779;52.168;20.878;2022-11-03T01:01:48;101052.41;;;7.75;76.02
50682;BME280;36779;52.168;20.878;2022-11-03T01:04:17;101050.19;;;7.74;76.08
50682;BME280;36779;52.168;20.878;2022-11-03T01:07:05;101055.75;;;7.71;75.94
50682;BME280;36779;52.168;20.878;2022-11-03T01:09:36;101058.09;;;7.68;76.02
50682;BME280;36779;52.168;20.878;2022-11-03T01:12:07;101058.79;;;7.66;75.91
50682;BME280;36779;52.168;20.878;2022-11-03T01:14:37;101063.17;;;7.64;76.02
50682;BME280;36779;52.168;20.878;2022-11-03T01:17:08;101065.92;;;7.64;76.04
50682;BME280;36779;52.168;20.878;2022-11-03T01:19:37;101061.14;;;7.61;75.78
50682;BME280;36779;52.168;20.878;2022-11-03T01:22:05;101063.34;;;7.61;75.95
50682;BME280;36779;52.168;20.878;2022-11-03T01:24:39;101063.88;;;7.62;76.12
50682;BME280;36779;52.168;20.878;2022-11-03T01:27:09;101067.70;;;7.61;76.12
50682;BME280;36779;52.168;20.878;2022-11-03T01:29:37;101067.29;;;7.60;76.14
50682;BME280;36779;52.168;20.878;2022-11-03T01:32:07;101067.28;;;7.55;76.11
50682;BME280;36779;52.168;20.878;2022-11-03T01:34:36;101070.70;;;7.50;75.93
50682;BME280;36779;52.168;20.878;2022-11-03T01:37:05;101074.14;;;7.45;75.85
50682;BME280;36779;52.168;20.878;2022-11-03T01:39:33;101072.69;;;7.41;75.84
50682;BME280;36779;52.168;20.878;2022-11-03T01:42:04;101074.09;;;7.37;75.66
50682;BME280;36779;52.168;20.878;2022-11-03T01:44:35;101071.61;;;7.33;75.76
50682;BME280;36779;52.168;20.878;2022-11-03T01:47:13;101071.16;;;7.31;75.90
50682;BME280;36779;52.168;20.878;2022-11-03T01:49:45;101070.80;;;7.29;75.66
50682;BME280;36779;52.168;20.878;2022-11-03T01:52:19;101070.72;;;7.26;75.91
50682;BME280;36779;52.168;20.878;2022-11-03T01:54:56;101066.16;;;7.26;75.95
50682;BME280;36779;52.168;20.878;2022-11-03T01:57:30;101063.83;;;7.19;75.90
50682;BME280;36779;52.168;20.878;2022-11-03T02:00:01;101063.84;;;7.11;75.71
50682;BME280;36779;52.168;20.878;2022-11-03T02:02:44;101069.52;;;7.08;75.81
50682;BME280;36779;52.168;20.878;2022-11-03T02:05:19;101068.17;;;7.07;75.80
50682;BME280;36779;52.168;20.878;2022-11-03T02:07:51;101071.11;;;7.08;75.90
50682;BME280;36779;52.168;20.878;2022-11-03T02:10:21;101074.08;;;7.11;75.95
50682;BME280;36779;52.168;20.878;2022-11-03T02:12:50;101075.11;;;7.14;76.00
50682;BME280;36779;52.168;20.878;2022-11-03T02:15:19;101073.83;;;7.14;75.89
50682;BME280;36779;52.168;20.878;2022-11-03T02:17:51;101070.34;;;7.14;76.00
50682;BME280;36779;52.168;20.878;2022-11-03T02:20:23;101070.15;;;7.12;76.02
50682;BME280;36779;52.168;20.878;2022-11-03T02:23:00;101070.84;;;7.09;76.13
50682;BME280;36779;52.168;20.878;2022-11-03T02:25:52;101070.75;;;7.08;76.11
50682;BME280;36779;52.168;20.878;2022-11-03T02:28:24;101071.73;;;7.07;76.04
50682;BME280;36779;52.168;20.878;2022-11-03T02:31:01;101070.90;;;7.06;75.99
50682;BME280;36779;52.168;20.878;2022-11-03T02:33:36;101071.34;;;7.07;76.00
50682;BME280;36779;52.168;20.878;2022-11-03T02:36:23;101072.94;;;7.10;76.00
50682;BME280;36779;52.168;20.878;2022-11-03T02:38:59;101074.05;;;7.11;76.08
50682;BME280;36779;52.168;20.878;2022-11-03T02:41:32;101074.85;;;7.10;76.05
50682;BME280;36779;52.168;20.878;2022-11-03T02:44:04;101079.01;;;7.09;76.11
50682;BME280;36779;52.168;20.878;2022-11-03T02:46:34;101080.26;;;7.06;76.21
50682;BME280;36779;52.168;20.878;2022-11-03T02:49:08;101082.29;;;7.05;76.16
50682;BME280;36779;52.168;20.878;2022-11-03T02:51:38;101085.75;;;7.04;76.06
50682;BME280;36779;52.168;20.878;2022-11-03T02:54:13;101083.58;;;7.02;76.20
50682;BME280;36779;52.168;20.878;2022-11-03T02:56:48;101085.58;;;6.99;75.94
50682;BME280;36779;52.168;20.878;2022-11-03T02:59:21;101086.44;;;7.00;75.99
50682;BME280;36779;52.168;20.878;2022-11-03T03:01:58;101087.24;;;7.01;76.18
50682;BME280;36779;52.168;20.878;2022-11-03T03:04:33;101088.92;;;7.02;76.06
50682;BME280;36779;52.168;20.878;2022-11-03T03:07:05;101088.92;;;7.02;76.11
50682;BME280;36779;52.168;20.878;2022-11-03T03:09:39;101089.84;;;7.01;76.18
50682;BME280;36779;52.168;20.878;2022-11-03T03:12:10;101090.34;;;7.00;76.24
50682;BME280;36779;52.168;20.878;2022-11-03T03:14:42;101093.55;;;6.97;76.14
50682;BME280;36779;52.168;20.878;2022-11-03T03:17:22;101092.05;;;6.92;76.13
50682;BME280;36779;52.168;20.878;2022-11-03T03:19:57;101095.73;;;6.83;75.94
50682;BME280;36779;52.168;20.878;2022-11-03T03:22:34;101097.45;;;6.77;75.94
50682;BME280;36779;52.168;20.878;2022-11-03T03:25:10;101095.88;;;6.76;76.04
50682;BME280;36779;52.168;20.878;2022-11-03T03:28:09;101094.58;;;6.73;75.86
50682;BME280;36779;52.168;20.878;2022-11-03T03:30:39;101097.45;;;6.74;76.07
50682;BME280;36779;52.168;20.878;2022-11-03T03:33:12;101095.30;;;6.75;76.03
50682;BME280;36779;52.168;20.878;2022-11-03T03:35:52;101094.21;;;6.73;76.11
50682;BME280;36779;52.168;20.878;2022-11-03T03:38:23;101093.94;;;6.72;76.14
50682;BME280;36779;52.168;20.878;2022-11-03T03:40:55;101094.27;;;6.70;76.10
50682;BME280;36779;52.168;20.878;2022-11-03T03:43:26;101095.64;;;6.66;76.05
50682;BME280;36779;52.168;20.878;2022-11-03T03:46:01;101098.40;;;6.63;76.15
50682;BME280;36779;52.168;20.878;2022-11-03T03:48:31;101101.58;;;6.60;76.00
50682;BME280;36779;52.168;20.878;2022-11-03T03:51:01;101104.73;;;6.58;76.13
50682;BME280;36779;52.168;20.878;2022-11-03T03:53:30;101106.21;;;6.55;75.99
50682;BME280;36779;52.168;20.878;2022-11-03T03:55:59;101107.42;;;6.51;75.94
50682;BME280;36779;52.168;20.878;2022-11-03T03:58:28;101112.30;;;6.50;75.92
50682;BME280;36779;52.168;20.878;2022-11-03T04:00:56;101115.91;;;6.51;76.17
50682;BME280;36779;52.168;20.878;2022-11-03T04:03:25;101116.55;;;6.54;76.19
50682;BME280;36779;52.168;20.878;2022-11-03T04:05:57;101117.26;;;6.56;76.30
50682;BME280;36779;52.168;20.878;2022-11-03T04:08:26;101112.38;;;6.55;76.16
50682;BME280;36779;52.168;20.878;2022-11-03T04:10:54;101117.84;;;6.49;76.02
50682;BME280;36779;52.168;20.878;2022-11-03T04:13:41;101119.72;;;6.38;75.99
50682;BME280;36779;52.168;20.878;2022-11-03T04:16:31;101118.45;;;6.34;76.01
50682;BME280;36779;52.168;20.878;2022-11-03T04:19:20;101118.18;;;6.28;75.91
50682;BME280;36779;52.168;20.878;2022-11-03T04:22:07;101119.05;;;6.24;75.88
50682;BME280;36779;52.168;20.878;2022-11-03T04:24:45;101119.98;;;6.23;76.00
50682;BME280;36779;52.168;20.878;2022-11-03T04:27:29;101117.64;;;6.21;75.87
50682;BME280;36779;52.168;20.878;2022-11-03T04:30:06;101122.15;;;6.20;75.89
50682;BME280;36779;52.168;20.878;2022-11-03T04:32:37;101125.46;;;6.18;75.87
50682;BME280;36779;52.168;20.878;2022-11-03T04:35:14;101125.98;;;6.18;75.99
50682;BME280;36779;52.168;20.878;2022-11-03T04:37:43;101127.81;;;6.15;75.98
50682;BME280;36779;52.168;20.878;2022-11-03T04:40:17;101129.58;;;6.12;76.11
50682;BME280;36779;52.168;20.878;2022-11-03T04:42:59;101132.09;;;6.12;76.17
50682;BME280;36779;52.168;20.878;2022-11-03T04:45:32;101135.33;;;6.09;76.07
50682;BME280;36779;52.168;20.878;2022-11-03T04:48:04;101134.52;;;6.05;76.01
50682;BME280;36779;52.168;20.878;2022-11-03T04:50:37;101135.80;;;6.00;75.95
50682;BME280;36779;52.168;20.878;2022-11-03T04:53:16;101132.80;;;5.95;75.87
50682;BME280;36779;52.168;20.878;2022-11-03T04:55:48;101131.00;;;5.96;76.09
50682;BME280;36779;52.168;20.878;2022-11-03T04:58:22;101130.02;;;5.98;76.01
50682;BME280;36779;52.168;20.878;2022-11-03T05:00:52;101130.67;;;5.96;75.87
50682;BME280;36779;52.168;20.878;2022-11-03T05:03:24;101136.48;;;5.94;75.96
50682;BME280;36779;52.168;20.878;2022-11-03T05:05:55;101142.06;;;5.86;75.82
50682;BME280;36779;52.168;20.878;2022-11-03T05:08:26;101144.60;;;5.79;75.91
50682;BME280;36779;52.168;20.878;2022-11-03T05:10:55;101144.58;;;5.76;75.90
50682;BME280;36779;52.168;20.878;2022-11-03T05:13:27;101142.92;;;5.75;75.98
50682;BME280;36779;52.168;20.878;2022-11-03T05:16:03;101144.16;;;5.77;76.22
50682;BME280;36779;52.168;20.878;2022-11-03T05:18:38;101145.81;;;5.76;76.04
50682;BME280;36779;52.168;20.878;2022-11-03T05:21:11;101143.89;;;5.72;75.80
50682;BME280;36779;52.168;20.878;2022-11-03T05:23:43;101141.29;;;5.71;75.90
50682;BME280;36779;52.168;20.878;2022-11-03T05:26:23;101140.05;;;5.71;75.91
50682;BME280;36779;52.168;20.878;2022-11-03T05:28:58;101139.70;;;5.69;75.86
50682;BME280;36779;52.168;20.878;2022-11-03T05:31:29;101145.02;;;5.63;75.74
50682;BME280;36779;52.168;20.878;2022-11-03T05:34:14;101143.67;;;5.55;75.76
50682;BME280;36779;52.168;20.878;2022-11-03T05:36:49;101148.57;;;5.51;75.90
50682;BME280;36779;52.168;20.878;2022-11-03T05:39:29;101149.00;;;5.55;76.20
50682;BME280;36779;52.168;20.878;2022-11-03T05:42:05;101149.05;;;5.54;76.06
50682;BME280;36779;52.168;20.878;2022-11-03T05:44:40;101149.94;;;5.49;75.77
50682;BME280;36779;52.168;20.878;2022-11-03T05:47:16;101153.89;;;5.53;76.25
50682;BME280;36779;52.168;20.878;2022-11-03T05:49:53;101151.36;;;5.61;76.46
50682;BME280;36779;52.168;20.878;2022-11-03T05:52:24;101157.71;;;5.68;76.35
50682;BME280;36779;52.168;20.878;2022-11-03T05:54:58;101155.80;;;5.63;75.95
50682;BME280;36779;52.168;20.878;2022-11-03T05:57:33;101160.59;;;5.48;75.52
50682;BME280;36779;52.168;20.878;2022-11-03T06:00:06;101160.21;;;5.36;75.61
50682;BME280;36779;52.168;20.878;2022-11-03T06:02:41;101160.17;;;5.36;76.00
50682;BME280;36779;52.168;20.878;2022-11-03T06:05:18;101160.16;;;5.39;76.07
50682;BME280;36779;52.168;20.878;2022-11-03T06:07:48;101162.01;;;5.40;76.11
50682;BME280;36779;52.168;20.878;2022-11-03T06:10:24;101163.46;;;5.45;76.28
50682;BME280;36779;52.168;20.878;2022-11-03T06:12:58;101164.92;;;5.47;76.17
50682;BME280;36779;52.168;20.878;2022-11-03T06:15:30;101169.70;;;5.51;76.23
50682;BME280;36779;52.168;20.878;2022-11-03T06:18:01;101171.90;;;5.57;76.36
50682;BME280;36779;52.168;20.878;2022-11-03T06:20:38;101170.63;;;5.63;76.40
50682;BME280;36779;52.168;20.878;2022-11-03T06:23:09;101166.98;;;5.72;76.52
50682;BME280;36779;52.168;20.878;2022-11-03T06:25:40;101169.20;;;5.80;76.58
50682;BME280;36779;52.168;20.878;2022-11-03T06:28:15;101170.13;;;5.89;76.73
50682;BME280;36779;52.168;20.878;2022-11-03T06:30:45;101170.58;;;5.95;76.71
50682;BME280;36779;52.168;20.878;2022-11-03T06:33:17;101172.98;;;6.01;76.80
50682;BME280;36779;52.168;20.878;2022-11-03T06:35:48;101172.34;;;6.05;76.76
50682;BME280;36779;52.168;20.878;2022-11-03T06:38:22;101172.67;;;6.05;76.45
50682;BME280;36779;52.168;20.878;2022-11-03T06:40:51;101170.52;;;6.05;76.36
50682;BME280;36779;52.168;20.878;2022-11-03T06:43:21;101177.04;;;6.10;76.49
50682;BME280;36779;52.168;20.878;2022-11-03T06:45:54;101173.65;;;6.18;76.55
50682;BME280;36779;52.168;20.878;2022-11-03T06:48:26;101177.10;;;6.26;76.70
50682;BME280;36779;52.168;20.878;2022-11-03T06:50:57;101177.05;;;6.36;76.70
50682;BME280;36779;52.168;20.878;2022-11-03T06:53:30;101177.27;;;6.43;76.74
50682;BME280;36779;52.168;20.878;2022-11-03T06:55:59;101179.69;;;6.48;76.73
50682;BME280;36779;52.168;20.878;2022-11-03T06:58:31;101178.98;;;6.50;76.84
50682;BME280;36779;52.168;20.878;2022-11-03T07:01:05;101174.81;;;6.52;76.80
50682;BME280;36779;52.168;20.878;2022-11-03T07:03:37;101173.80;;;6.56;76.76
50682;BME280;36779;52.168;20.878;2022-11-03T07:06:14;101175.98;;;6.60;76.70
50682;BME280;36779;52.168;20.878;2022-11-03T07:08:48;101177.91;;;6.67;76.71
50682;BME280;36779;52.168;20.878;2022-11-03T07:11:19;101174.98;;;6.75;76.84
50682;BME280;36779;52.168;20.878;2022-11-03T07:13:50;101169.63;;;6.78;76.62
50682;BME280;36779;52.168;20.878;2022-11-03T07:16:25;101172.38;;;6.81;76.65
50682;BME280;36779;52.168;20.878;2022-11-03T07:18:56;101174.29;;;6.91;76.83
50682;BME280;36779;52.168;20.878;2022-11-03T07:21:35;101169.83;;;7.00;76.81
50682;BME280;36779;52.168;20.878;2022-11-03T07:24:14;101170.39;;;7.09;76.77
50682;BME280;36779;52.168;20.878;2022-11-03T07:26:44;101174.88;;;7.11;76.73
50682;BME280;36779;52.168;20.878;2022-11-03T07:29:20;101169.70;;;7.13;76.71
50682;BME280;36779;52.168;20.878;2022-11-03T07:31:51;101166.11;;;7.16;76.76
50682;BME280;36779;52.168;20.878;2022-11-03T07:34:22;101165.52;;;7.21;76.74
50682;BME280;36779;52.168;20.878;2022-11-03T07:36:54;101163.38;;;7.26;76.63
50682;BME280;36779;52.168;20.878;2022-11-03T07:39:29;101158.61;;;7.30;76.66
50682;BME280;36779;52.168;20.878;2022-11-03T07:42:02;101156.12;;;7.35;76.65
50682;BME280;36779;52.168;20.878;2022-11-03T07:44:37;101157.20;;;7.41;76.53
50682;BME280;36779;52.168;20.878;2022-11-03T07:47:13;101157.59;;;7.48;76.61
50682;BME280;36779;52.168;20.878;2022-11-03T07:49:48;101159.04;;;7.58;76.77
50682;BME280;36779;52.168;20.878;2022-11-03T07:52:19;101156.33;;;7.67;76.87
50682;BME280;36779;52.168;20.878;2022-11-03T07:54:50;101158.45;;;7.76;76.82
50682;BME280;36779;52.168;20.878;2022-11-03T07:57:21;101154.78;;;7.83;76.68
50682;BME280;36779;52.168;20.878;2022-11-03T07:59:52;101156.66;;;7.87;76.83
50682;BME280;36779;52.168;20.878;2022-11-03T08:02:28;101157.11;;;7.97;76.84
50682;BME280;36779;52.168;20.878;2022-11-03T08:04:59;101155.91;;;8.18;76.99
50682;BME280;36779;52.168;20.878;2022-11-03T08:07:28;101156.35;;;8.53;77.17
50682;BME280;36779;52.168;20.878;2022-11-03T08:09:56;101156.13;;;8.89;77.45
50682;BME280;36779;52.168;20.878;2022-11-03T08:12:25;101152.77;;;9.43;78.21
50682;BME280;36779;52.168;20.878;2022-11-03T08:14:53;101156.32;;;9.83;78.03
50682;BME280;36779;52.168;20.878;2022-11-03T08:17:22;101159.38;;;9.85;77.16
50682;BME280;36779;52.168;20.878;2022-11-03T08:19:51;101155.42;;;9.79;76.85
50682;BME280;36779;52.168;20.878;2022-11-03T08:22:20;101154.33;;;9.76;76.59
50682;BME280;36779;52.168;20.878;2022-11-03T08:24:52;101152.74;;;9.70;76.39
50682;BME280;36779;52.168;20.878;2022-11-03T08:27:21;101152.85;;;9.72;76.60
50682;BME280;36779;52.168;20.878;2022-11-03T08:29:49;101153.77;;;10.27;77.55
50682;BME280;36779;52.168;20.878;2022-11-03T08:32:18;101153.17;;;10.92;77.46
50682;BME280;36779;52.168;20.878;2022-11-03T08:34:48;101146.66;;;11.32;76.82
50682;BME280;36779;52.168;20.878;2022-11-03T08:37:16;101149.64;;;11.54;76.54
50682;BME280;36779;52.168;20.878;2022-11-03T08:39:45;101145.20;;;11.75;76.44
50682;BME280;36779;52.168;20.878;2022-11-03T08:42:16;101149.10;;;11.88;76.06
50682;BME280;36779;52.168;20.878;2022-11-03T08:44:45;101148.02;;;11.82;75.46
50682;BME280;36779;52.168;20.878;2022-11-03T08:47:14;101146.07;;;11.66;75.16
50682;BME280;36779;52.168;20.878;2022-11-03T08:49:48;101146.10;;;11.56;75.46
50682;BME280;36779;52.168;20.878;2022-11-03T08:52:17;101148.82;;;11.46;75.19
50682;BME280;36779;52.168;20.878;2022-11-03T08:54:45;101145.77;;;11.34;75.18
50682;BME280;36779;52.168;20.878;2022-11-03T08:57:14;101145.02;;;11.33;75.64
50682;BME280;36779;52.168;20.878;2022-11-03T08:59:43;101144.83;;;11.33;75.69
50682;BME280;36779;52.168;20.878;2022-11-03T09:02:11;101144.42;;;11.22;75.41
50682;BME280;36779;52.168;20.878;2022-11-03T09:04:42;101143.66;;;11.06;75.26
50682;BME280;36779;52.168;20.878;2022-11-03T09:07:14;101143.10;;;10.97;75.46
50682;BME280;36779;52.168;20.878;2022-11-03T09:09:44;101137.34;;;10.96;75.71
50682;BME280;36779;52.168;20.878;2022-11-03T09:12:33;101144.61;;;10.94;75.64
50682;BME280;36779;52.168;20.878;2022-11-03T09:15:02;101145.16;;;10.90;75.61
50682;BME280;36779;52.168;20.878;2022-11-03T09:17:30;101143.62;;;10.86;75.58
50682;BME280;36779;52.168;20.878;2022-11-03T09:19:59;101140.11;;;10.86;75.65
50682;BME280;36779;52.168;20.878;2022-11-03T09:22:27;101140.10;;;10.93;75.84
50682;BME280;36779;52.168;20.878;2022-11-03T09:24:56;101140.30;;;11.10;75.99
50682;BME280;36779;52.168;20.878;2022-11-03T09:27:24;101140.18;;;11.24;75.76
50682;BME280;36779;52.168;20.878;2022-11-03T09:29:53;101136.56;;;11.39;75.69
50682;BME280;36779;52.168;20.878;2022-11-03T09:32:40;101137.89;;;11.69;76.01
50682;BME280;36779;52.168;20.878;2022-11-03T09:35:09;101137.33;;;12.13;76.22
50682;BME280;36779;52.168;20.878;2022-11-03T09:37:39;101132.19;;;12.77;76.35
50682;BME280;36779;52.168;20.878;2022-11-03T09:40:10;101132.97;;;13.30;75.86
50682;BME280;36779;52.168;20.878;2022-11-03T09:42:41;101132.11;;;13.78;75.18
50682;BME280;36779;52.168;20.878;2022-11-03T09:45:10;101132.72;;;14.24;74.51
50682;BME280;36779;52.168;20.878;2022-11-03T09:47:40;101127.54;;;14.77;74.86
50682;BME280;36779;52.168;20.878;2022-11-03T09:50:14;101122.54;;;15.54;75.35
50682;BME280;36779;52.168;20.878;2022-11-03T09:52:44;101120.80;;;16.44;75.15
50682;BME280;36779;52.168;20.878;2022-11-03T09:55:22;101112.10;;;17.06;74.59
50682;BME280;36779;52.168;20.878;2022-11-03T09:57:52;101111.08;;;17.51;74.31
50682;BME280;36779;52.168;20.878;2022-11-03T10:00:23;101108.48;;;18.08;74.34
50682;BME280;36779;52.168;20.878;2022-11-03T10:02:54;101104.33;;;18.48;73.81
50682;BME280;36779;52.168;20.878;2022-11-03T10:05:24;101099.27;;;18.84;73.77
50682;BME280;36779;52.168;20.878;2022-11-03T10:07:56;101094.13;;;19.09;73.44
50682;BME280;36779;52.168;20.878;2022-11-03T10:10:27;101090.16;;;19.25;73.03
50682;BME280;36779;52.168;20.878;2022-11-03T10:12:57;101090.13;;;19.38;72.62
50682;BME280;36779;52.168;20.878;2022-11-03T10:15:27;101087.64;;;19.40;72.12
50682;BME280;36779;52.168;20.878;2022-11-03T10:17:56;101086.91;;;19.34;71.61
50682;BME280;36779;52.168;20.878;2022-11-03T10:20:26;101085.05;;;19.38;71.71
50682;BME280;36779;52.168;20.878;2022-11-03T10:22:55;101078.84;;;19.60;72.35
50682;BME280;36779;52.168;20.878;2022-11-03T10:25:41;101078.48;;;19.82;72.02
50682;BME280;36779;52.168;20.878;2022-11-03T10:28:18;101081.34;;;19.72;71.70
50682;BME280;36779;52.168;20.878;2022-11-03T10:30:50;101079.98;;;19.80;72.07
50682;BME280;36779;52.168;20.878;2022-11-03T10:33:50;101079.66;;;19.67;71.45
50682;BME280;36779;52.168;20.878;2022-11-03T10:36:24;101076.27;;;19.50;71.62
50682;BME280;36779;52.168;20.878;2022-11-03T10:38:53;101080.73;;;19.28;71.57
50682;BME280;36779;52.168;20.878;2022-11-03T10:41:24;101076.08;;;19.08;71.42
50682;BME280;36779;52.168;20.878;2022-11-03T10:44:02;101074.88;;;18.77;71.21
50682;BME280;36779;52.168;20.878;2022-11-03T10:46:33;101074.77;;;18.41;71.33
50682;BME280;36779;52.168;20.878;2022-11-03T10:49:19;101065.92;;;18.10;70.87
50682;BME280;36779;52.168;20.878;2022-11-03T10:51:51;101066.55;;;17.63;70.49
50682;BME280;36779;52.168;20.878;2022-11-03T10:54:22;101064.68;;;17.41;71.31
50682;BME280;36779;52.168;20.878;2022-11-03T10:56:51;101064.45;;;17.35;71.53
50682;BME280;36779;52.168;20.878;2022-11-03T10:59:27;101057.16;;;17.28;71.77
50682;BME280;36779;52.168;20.878;2022-11-03T11:02:00;101055.95;;;17.16;71.63
50682;BME280;36779;52.168;20.878;2022-11-03T11:04:31;101056.23;;;16.99;71.28
50682;BME280;36779;52.168;20.878;2022-11-03T11:07:01;101049.52;;;16.78;71.01
50682;BME280;36779;52.168;20.878;2022-11-03T11:09:32;101047.70;;;16.59;71.25
50682;BME280;36779;52.168;20.878;2022-11-03T11:12:05;101044.30;;;16.47;71.36
50682;BME280;36779;52.168;20.878;2022-11-03T11:14:36;101041.48;;;16.33;71.06
50682;BME280;36779;52.168;20.878;2022-11-03T11:17:42;101039.65;;;16.21;71.03
50682;BME280;36779;52.168;20.878;2022-11-03T11:20:33;101036.20;;;16.12;71.27
50682;BME280;36779;52.168;20.878;2022-11-03T11:26:28;101022.38;;;15.89;70.98
50682;BME280;36779;52.168;20.878;2022-11-03T11:36:00;101015.77;;;15.35;70.47
50682;BME280;36779;52.168;20.878;2022-11-03T11:41:12;101007.09;;;15.04;70.31
50682;BME280;36779;52.168;20.878;2022-11-03T11:43:41;101006.92;;;14.96;70.12
50682;BME280;36779;52.168;20.878;2022-11-03T11:46:37;101000.77;;;14.92;70.28
50682;BME280;36779;52.168;20.878;2022-11-03T11:49:17;101000.89;;;14.72;69.80
50682;BME280;36779;52.168;20.878;2022-11-03T11:51:48;100999.39;;;14.62;70.17
50682;BME280;36779;52.168;20.878;2022-11-03T11:54:19;100997.01;;;14.53;69.63
50682;BME280;36779;52.168;20.878;2022-11-03T11:56:49;100991.84;;;14.33;69.54
50682;BME280;36779;52.168;20.878;2022-11-03T11:59:21;100983.67;;;14.14;69.46
50682;BME280;36779;52.168;20.878;2022-11-03T12:01:54;100981.09;;;14.03;69.83
50682;BME280;36779;52.168;20.878;2022-11-03T12:04:26;100978.11;;;13.95;69.79
50682;BME280;36779;52.168;20.878;2022-11-03T12:07:00;100982.08;;;13.89;69.91
50682;BME280;36779;52.168;20.878;2022-11-03T12:09:29;100981.48;;;13.80;69.48
50682;BME280;36779;52.168;20.878;2022-11-03T12:11:59;100981.19;;;13.68;69.65
50682;BME280;36779;52.168;20.878;2022-11-03T12:14:37;100979.20;;;13.59;69.53
50682;BME280;36779;52.168;20.878;2022-11-03T12:17:31;100976.45;;;13.59;69.86
50682;BME280;36779;52.168;20.878;2022-11-03T12:20:42;100977.00;;;13.58;69.93
50682;BME280;36779;52.168;20.878;2022-11-03T12:23:31;100968.59;;;13.56;70.00
50682;BME280;36779;52.168;20.878;2022-11-03T12:25:59;100964.35;;;13.54;69.90
50682;BME280;36779;52.168;20.878;2022-11-03T12:28:32;100962.77;;;13.55;69.98
50682;BME280;36779;52.168;20.878;2022-11-03T12:31:01;100959.92;;;13.57;69.89
50682;BME280;36779;52.168;20.878;2022-11-03T12:33:30;100958.81;;;13.62;70.05
50682;BME280;36779;52.168;20.878;2022-11-03T12:35:59;100957.17;;;13.62;69.66
50682;BME280;36779;52.168;20.878;2022-11-03T12:38:27;100955.86;;;13.52;69.53
50682;BME280;36779;52.168;20.878;2022-11-03T12:40:56;100957.64;;;13.45;69.69
50682;BME280;36779;52.168;20.878;2022-11-03T12:43:24;100954.36;;;13.46;69.82
50682;BME280;36779;52.168;20.878;2022-11-03T12:45:55;100957.27;;;13.48;69.80
50682;BME280;36779;52.168;20.878;2022-11-03T12:48:24;100953.19;;;13.47;69.63
50682;BME280;36779;52.168;20.878;2022-11-03T12:50:52;100950.52;;;13.38;69.67
50682;BME280;36779;52.168;20.878;2022-11-03T12:53:21;100950.50;;;13.29;69.24
50682;BME280;36779;52.168;20.878;2022-11-03T12:55:49;100944.30;;;13.11;69.25
50682;BME280;36779;52.168;20.878;2022-11-03T12:58:17;100945.56;;;12.98;69.03
50682;BME280;36779;52.168;20.878;2022-11-03T13:00:49;100940.61;;;12.92;69.34
50682;BME280;36779;52.168;20.878;2022-11-03T13:03:23;100939.87;;;12.89;69.27
50682;BME280;36779;52.168;20.878;2022-11-03T13:05:52;100941.50;;;12.86;69.24
50682;BME280;36779;52.168;20.878;2022-11-03T13:08:20;100940.19;;;12.85;69.31
50682;BME280;36779;52.168;20.878;2022-11-03T13:10:49;100942.56;;;12.84;69.25
50682;BME280;36779;52.168;20.878;2022-11-03T13:13:17;100944.52;;;12.83;69.26
50682;BME280;36779;52.168;20.878;2022-11-03T13:15:45;100944.68;;;12.76;69.21
50682;BME280;36779;52.168;20.878;2022-11-03T13:18:15;100944.73;;;12.72;69.35
50682;BME280;36779;52.168;20.878;2022-11-03T13:20:46;100941.50;;;12.74;69.49
50682;BME280;36779;52.168;20.878;2022-11-03T13:23:15;100938.58;;;12.70;69.09
50682;BME280;36779;52.168;20.878;2022-11-03T13:25:50;100938.02;;;12.63;69.31
50682;BME280;36779;52.168;20.878;2022-11-03T13:28:19;100936.53;;;12.59;69.17